Search for airport 
image banner adimage banner adimage banner ad
image banner ad

KNID - China Lake Naws (Armitage Fld)

Located in China Lake, United States

ICAO - NID, IATA -

Data provided by Airmate  

General information

Coordinates: N35°41'9" W117°41'32"
Elevation is 2284 feet MSL.
Magnetic variation is 14° East
View others Airports in California

Operational data

Special qualification required
Current time UTC:
Current local time:
Weather
METAR: KNID 211256Z 20005KT 10SM CLR 26/01 A2982 RMK AO2 SLP070 T02610011 $
View NOTAMs / SUP AIP / TFR affecting this airport [VIEW]
Communications frequencies: [VIEW]

Runways:

RWY identifierQFULength (ft)Width (ft)SurfaceLDA (ft)
0342°10001200CONC
21222°10001200CONC
0890°711175CONC
26270°711175CONC
14154°9014200ASPH
32334°9014200ASPH

Airport contact information

Address: China Lake United States

Satellite view of KNID